CheckWX is a tool to help pilots better visualize weather data.  It is not intended as a substitute for an official pre-flight weather briefing.

14:43:46 UTC

KMOB METAR
Mobile Regional Airport
Mobile, Alabama, USA
Current

13 mins ago

KMOB 201431Z 24004KT 7SM BKN015 BKN250 28/23 A3006 RMK AO2 T02830228
Observed
May-20 @ 14:31 UTC
Wind
  • 240° at 4 KTS
Visibility
7 SM
Flight Rules
MVFR
Cloud Levels
  • Broken at 1,500' AGL
  • Broken at 25,000' AGL
Temperature
28°C / 82°F
Dewpoint
23°C / 73°F
Heat Index
31°C / 87°F
Humidity
74%
Altimeter
30.06" Hg
Pressure
1017.92 hPa
Previous

48 mins ago

KMOB 201356Z 18004KT 7SM BKN010 BKN250 27/24 A3006 RMK AO2 SLP175 T02720239
Observed
May-20 @ 13:56 UTC
Wind
  • 180° at 4 KTS
Visibility
7 SM
Flight Rules
MVFR
Cloud Levels
  • Broken at 1,000' AGL
  • Broken at 25,000' AGL
Temperature
27°C / 81°F
Dewpoint
24°C / 75°F
Heat Index
31°C / 87°F
Humidity
84%
Altimeter
30.06" Hg
Pressure
1017.92 hPa
Previous

1 hour ago

KMOB 201325Z 00000KT 6SM BR BKN007 BKN250 26/24 A3005 RMK AO2 T02610244
Observed
May-20 @ 13:25 UTC
Visibility
6 SM
Flight Rules
IFR
Conditions
Mist
Cloud Levels
  • Broken at 700' AGL
  • Broken at 25,000' AGL
Temperature
26°C / 79°F
Dewpoint
24°C / 75°F
Humidity
89%
Altimeter
30.05" Hg
Pressure
1017.62 hPa